Terminal Aerodrome Forecast
Issued by NWS Houston/Galveston, TX

Home | Current Version | Previous Version | Text Only | Print | Product List | Glossary On
Versions: 1 2 3 4 5 6 7 8 9 10 11 12 13 14 15 16 17 18 19 20 21 22 23 24 25 26 27 28 29
000
FTUS44 KHGX 301720
TAFCLL
TAF
KCLL 301720Z 3018/3118 26008KT P6SM SCT035
     FM302100 17009KT P6SM FEW060
     FM310100 16006KT P6SM SKC
     FM311200 19004KT P6SM SCT008
     FM311500 20007KT P6SM FEW015 SCT025=

USA.gov is the U.S. government's official web portal to all federal, state and local government web resources and services.